createdAt,value
2023-05-09T00:00:17.517Z,15.41
2023-05-09T00:01:17.483Z,15.39
2023-05-09T00:02:17.487Z,15.37
2023-05-09T00:03:18.538Z,15.35
2023-05-09T00:04:17.511Z,15.33
2023-05-09T00:05:17.438Z,15.31
2023-05-09T00:06:17.473Z,15.29
2023-05-09T00:07:17.392Z,15.27
2023-05-09T00:08:17.587Z,15.25
2023-05-09T00:09:18.316Z,15.23
2023-05-09T00:10:17.388Z,15.21
2023-05-09T00:11:17.418Z,15.19
2023-05-09T00:12:17.330Z,15.17
2023-05-09T00:13:17.450Z,15.15
2023-05-09T00:14:18.293Z,15.14
2023-05-09T00:15:17.375Z,15.13
2023-05-09T00:16:17.366Z,15.12
2023-05-09T00:17:17.328Z,15.11
2023-05-09T00:18:17.259Z,15.10
2023-05-09T00:19:18.181Z,15.09
2023-05-09T00:20:17.217Z,15.08
2023-05-09T00:21:17.238Z,15.07
2023-05-09T00:22:17.217Z,15.06
2023-05-09T00:23:17.251Z,15.05
2023-05-09T00:24:17.230Z,15.05
2023-05-09T00:25:18.120Z,15.04
2023-05-09T00:26:17.877Z,15.03
2023-05-09T00:27:17.155Z,15.02
2023-05-09T00:28:17.160Z,15.01
2023-05-09T00:29:17.125Z,15.00
2023-05-09T00:30:17.182Z,14.99
2023-05-09T00:31:17.993Z,14.97
2023-05-09T00:32:17.157Z,14.96
2023-05-09T00:33:17.154Z,14.94
2023-05-09T00:34:17.076Z,14.93
2023-05-09T00:35:17.166Z,14.92
2023-05-09T00:36:17.034Z,14.91
2023-05-09T00:37:18.031Z,14.90
2023-05-09T00:38:17.010Z,14.89
2023-05-09T00:39:17.016Z,14.88
2023-05-09T00:40:16.971Z,14.87
2023-05-09T00:41:16.986Z,14.86
2023-05-09T00:42:17.936Z,14.85
2023-05-09T00:43:16.950Z,14.84
2023-05-09T00:44:18.977Z,14.83
2023-05-09T00:45:16.951Z,14.82
2023-05-09T00:46:17.200Z,14.81
2023-05-09T00:47:16.885Z,14.80
2023-05-09T00:48:17.923Z,14.79
2023-05-09T00:49:16.827Z,14.78
2023-05-09T00:50:16.894Z,14.78
2023-05-09T00:51:16.912Z,14.77
2023-05-09T00:52:16.871Z,14.76
2023-05-09T00:53:16.792Z,14.76
2023-05-09T00:54:17.846Z,14.75
2023-05-09T00:55:16.815Z,14.75
2023-05-09T00:56:16.753Z,14.74
2023-05-09T00:57:16.783Z,14.73
2023-05-09T00:58:16.944Z,14.72
2023-05-09T00:59:17.559Z,14.71
2023-05-09T01:00:17.781Z,14.69
2023-05-09T01:01:16.727Z,14.67
2023-05-09T01:02:16.757Z,14.65
2023-05-09T01:03:16.818Z,14.63
2023-05-09T01:04:16.723Z,14.61
2023-05-09T01:05:17.770Z,14.60
2023-05-09T01:06:16.638Z,14.58
2023-05-09T01:07:16.674Z,14.57
2023-05-09T01:08:16.629Z,14.56
2023-05-09T01:09:16.583Z,14.55
2023-05-09T01:10:16.637Z,14.54
2023-05-09T01:11:17.615Z,14.54
2023-05-09T01:12:16.614Z,14.53
2023-05-09T01:13:16.570Z,14.53
2023-05-09T01:14:16.520Z,14.52
2023-05-09T01:15:16.790Z,14.52
2023-05-09T01:16:16.599Z,14.51
2023-05-09T01:17:17.413Z,14.51
2023-05-09T01:18:16.516Z,14.50
2023-05-09T01:19:16.570Z,14.50
2023-05-09T01:20:16.459Z,14.49
2023-05-09T01:21:16.528Z,14.49
2023-05-09T01:22:17.461Z,14.48
2023-05-09T01:23:16.416Z,14.47
2023-05-09T01:24:16.420Z,14.46
2023-05-09T01:25:16.592Z,14.45
2023-05-09T01:26:16.437Z,14.44
2023-05-09T01:27:16.406Z,14.43
2023-05-09T01:28:18.027Z,14.42
2023-05-09T01:29:16.446Z,14.41
2023-05-09T01:30:16.348Z,14.40
2023-05-09T01:31:16.400Z,14.39
2023-05-09T01:32:16.284Z,14.38
2023-05-09T01:33:17.245Z,14.37
2023-05-09T01:34:16.344Z,14.36
2023-05-09T01:35:16.495Z,14.35
2023-05-09T01:36:16.265Z,14.34
2023-05-09T01:37:16.392Z,14.34
2023-05-09T01:38:17.166Z,14.33
2023-05-09T01:39:16.252Z,14.32
2023-05-09T01:40:16.227Z,14.31
2023-05-09T01:41:16.228Z,14.30
2023-05-09T01:42:16.216Z,14.30
2023-05-09T01:43:16.146Z,14.29
2023-05-09T01:44:17.118Z,14.28
2023-05-09T01:45:16.301Z,14.26
2023-05-09T01:46:16.155Z,14.25
2023-05-09T01:47:16.084Z,14.24
2023-05-09T01:48:16.177Z,14.22
2023-05-09T01:49:16.107Z,14.21
2023-05-09T01:50:17.012Z,14.20
2023-05-09T01:51:16.107Z,14.19
2023-05-09T01:52:16.141Z,14.18
2023-05-09T01:53:16.047Z,14.17
2023-05-09T01:54:16.066Z,14.17
2023-05-09T01:55:17.902Z,14.16
2023-05-09T01:56:16.062Z,14.15
2023-05-09T01:57:16.004Z,14.14
2023-05-09T01:58:15.966Z,14.13
2023-05-09T01:59:16.094Z,14.12
2023-05-09T02:00:15.936Z,14.11
2023-05-09T02:01:16.933Z,14.09
2023-05-09T02:02:16.049Z,14.08
2023-05-09T02:03:15.963Z,14.07
2023-05-09T02:04:15.997Z,14.05
2023-05-09T02:05:16.094Z,14.04
2023-05-09T02:06:16.850Z,14.03
2023-05-09T02:07:15.935Z,14.02
2023-05-09T02:08:15.887Z,14.01
2023-05-09T02:09:15.852Z,14.00
2023-05-09T02:10:15.928Z,13.99
2023-05-09T02:11:16.792Z,13.98
2023-05-09T02:12:15.842Z,13.97
2023-05-09T02:13:15.980Z,13.96
2023-05-09T02:14:15.912Z,13.95
2023-05-09T02:15:15.982Z,13.95
2023-05-09T02:16:15.860Z,13.94
2023-05-09T02:17:16.723Z,13.93
2023-05-09T02:18:15.752Z,13.92
2023-05-09T02:19:15.673Z,13.92
2023-05-09T02:20:15.701Z,13.91
2023-05-09T02:21:15.757Z,13.91
2023-05-09T02:22:16.688Z,13.90
2023-05-09T02:23:15.716Z,13.90
2023-05-09T02:24:15.700Z,13.90
2023-05-09T02:25:16.146Z,13.90
2023-05-09T02:26:15.669Z,13.90
2023-05-09T02:27:16.534Z,13.90
2023-05-09T02:28:15.661Z,13.90
2023-05-09T02:29:15.611Z,13.90
2023-05-09T02:30:15.623Z,13.89
2023-05-09T02:31:15.631Z,13.89
2023-05-09T02:32:15.753Z,13.88
2023-05-09T02:33:16.467Z,13.88
2023-05-09T02:34:15.549Z,13.87
2023-05-09T02:35:15.794Z,13.87
2023-05-09T02:36:15.530Z,13.86
2023-05-09T02:37:15.438Z,13.86
2023-05-09T02:39:13.008Z,14.87
2023-05-09T02:40:12.959Z,14.39
2023-05-09T02:41:13.043Z,14.03
2023-05-09T02:42:12.966Z,13.81
2023-05-09T02:43:13.831Z,13.68
2023-05-09T02:44:12.898Z,13.62
2023-05-09T02:45:13.087Z,13.59
2023-05-09T02:46:12.992Z,13.59
2023-05-09T02:47:13.035Z,13.60
2023-05-09T02:48:19.091Z,13.62
2023-05-09T02:49:22.780Z,13.64
2023-05-09T02:50:14.410Z,13.66
2023-05-09T02:51:12.845Z,13.67
2023-05-09T02:52:12.829Z,13.69
2023-05-09T02:53:13.685Z,13.70
2023-05-09T02:54:12.836Z,13.70
2023-05-09T02:55:12.971Z,13.71
2023-05-09T02:56:12.904Z,13.71
2023-05-09T02:57:12.790Z,13.71
2023-05-09T02:58:14.683Z,13.71
2023-05-09T02:59:13.606Z,13.71
2023-05-09T03:00:12.717Z,13.71
2023-05-09T03:01:12.788Z,13.71
2023-05-09T03:02:12.653Z,13.70
2023-05-09T03:03:12.702Z,13.70
2023-05-09T03:04:13.645Z,13.69
2023-05-09T03:05:12.774Z,13.68
2023-05-09T03:06:12.648Z,13.67
2023-05-09T03:07:12.646Z,13.67
2023-05-09T03:08:12.564Z,13.66
2023-05-09T03:09:13.504Z,13.65
2023-05-09T03:10:12.547Z,13.65
2023-05-09T03:11:12.593Z,13.64
2023-05-09T03:12:12.510Z,13.64
2023-05-09T03:13:12.568Z,13.64
2023-05-09T03:14:12.512Z,13.63
2023-05-09T03:15:13.843Z,13.63
2023-05-09T03:16:12.532Z,13.63
2023-05-09T03:17:12.451Z,13.63
2023-05-09T03:18:12.498Z,13.63
2023-05-09T03:19:12.442Z,13.63
2023-05-09T03:20:18.635Z,13.63
2023-05-09T03:21:12.436Z,13.63
2023-05-09T03:22:12.414Z,13.62
2023-05-09T03:23:12.451Z,13.62
2023-05-09T03:24:12.359Z,13.62
2023-05-09T03:25:13.586Z,13.61
2023-05-09T03:26:12.364Z,13.61
2023-05-09T03:27:12.405Z,13.60
2023-05-09T03:28:12.346Z,13.59
2023-05-09T03:29:12.303Z,13.58
2023-05-09T03:30:18.560Z,13.57
2023-05-09T03:31:12.305Z,13.56
2023-05-09T03:32:13.933Z,13.55
2023-05-09T03:33:12.255Z,13.54
2023-05-09T03:34:12.329Z,13.53
2023-05-09T03:35:13.363Z,13.52
2023-05-09T03:36:12.226Z,13.51
2023-05-09T03:37:12.206Z,13.50
2023-05-09T03:38:12.208Z,13.49
2023-05-09T03:39:12.186Z,13.49
2023-05-09T03:40:18.447Z,13.48
2023-05-09T03:41:12.163Z,13.48
2023-05-09T03:42:12.174Z,13.48
2023-05-09T03:43:12.105Z,13.48
2023-05-09T03:44:12.096Z,13.48
2023-05-09T03:45:13.198Z,13.48
2023-05-09T03:46:12.133Z,13.48
2023-05-09T03:47:12.048Z,13.49
2023-05-09T03:48:12.069Z,13.49
2023-05-09T03:49:12.080Z,13.50
2023-05-09T03:50:12.043Z,13.50
2023-05-09T03:51:12.965Z,13.50
2023-05-09T03:52:12.041Z,13.51
2023-05-09T03:53:12.017Z,13.51
2023-05-09T03:54:12.016Z,13.52
2023-05-09T03:55:12.023Z,13.52
2023-05-09T03:56:11.957Z,13.53
2023-05-09T03:57:12.878Z,13.53
2023-05-09T03:58:11.976Z,13.53
2023-05-09T03:59:12.067Z,13.53
2023-05-09T04:00:11.901Z,13.53
2023-05-09T04:01:11.892Z,13.53
2023-05-09T04:02:12.982Z,13.54
2023-05-09T04:03:11.928Z,13.54
2023-05-09T04:04:11.954Z,13.54
2023-05-09T04:05:11.886Z,13.55
2023-05-09T04:06:11.904Z,13.55
2023-05-09T04:07:12.768Z,13.56
2023-05-09T04:08:11.855Z,13.56
2023-05-09T04:09:11.873Z,13.56
2023-05-09T04:10:11.784Z,13.56
2023-05-09T04:11:11.815Z,13.56
2023-05-09T04:12:12.762Z,13.56
2023-05-09T04:13:11.752Z,13.56
2023-05-09T04:14:11.752Z,13.56
2023-05-09T04:15:12.035Z,13.56
2023-05-09T04:16:11.728Z,13.57
2023-05-09T04:17:12.648Z,13.57
2023-05-09T04:18:11.728Z,13.58
2023-05-09T04:19:11.696Z,13.59
2023-05-09T04:20:11.684Z,13.60
2023-05-09T04:21:11.700Z,13.60
2023-05-09T04:22:12.651Z,13.61
2023-05-09T04:23:11.639Z,13.62
2023-05-09T04:24:11.650Z,13.62
2023-05-09T04:25:11.574Z,13.63
2023-05-09T04:26:11.597Z,13.63
2023-05-09T04:27:12.502Z,13.63
2023-05-09T04:28:11.554Z,13.63
2023-05-09T04:29:11.528Z,13.62
2023-05-09T04:30:11.530Z,13.62
2023-05-09T04:31:11.643Z,13.62
2023-05-09T04:32:17.811Z,13.61
2023-05-09T04:33:11.515Z,13.61
2023-05-09T04:34:11.486Z,13.61
2023-05-09T04:35:11.585Z,13.61
2023-05-09T04:36:11.448Z,13.61
2023-05-09T04:37:11.443Z,13.60
2023-05-09T04:38:12.453Z,13.60
2023-05-09T04:39:11.419Z,13.60
2023-05-09T04:40:11.454Z,13.59
2023-05-09T04:41:11.404Z,13.59
2023-05-09T04:42:11.373Z,13.58
2023-05-09T04:43:11.398Z,13.58
2023-05-09T04:44:12.317Z,13.57
2023-05-09T04:45:11.427Z,13.57
2023-05-09T04:46:11.414Z,13.56
2023-05-09T04:47:11.363Z,13.56
2023-05-09T04:48:11.315Z,13.55
2023-05-09T04:49:12.205Z,13.54
2023-05-09T04:50:11.295Z,13.54
2023-05-09T04:51:11.292Z,13.53
2023-05-09T04:52:11.274Z,13.53
2023-05-09T04:53:11.228Z,13.52
2023-05-09T04:54:11.201Z,13.52
2023-05-09T04:55:12.222Z,13.51
2023-05-09T04:56:11.197Z,13.51
2023-05-09T04:57:17.793Z,13.51
2023-05-09T04:58:12.677Z,13.50
2023-05-09T04:59:11.153Z,13.50
2023-05-09T05:00:12.095Z,13.50
2023-05-09T05:01:11.402Z,13.50
2023-05-09T05:02:11.098Z,13.50
2023-05-09T05:03:11.296Z,13.51
2023-05-09T05:04:11.185Z,13.51
2023-05-09T05:05:12.700Z,13.51
2023-05-09T05:06:11.083Z,13.51
2023-05-09T05:07:11.052Z,13.52
2023-05-09T05:08:11.148Z,13.52
2023-05-09T05:09:11.043Z,13.52
2023-05-09T05:10:11.968Z,13.52
2023-05-09T05:11:11.002Z,13.52
2023-05-09T05:12:10.984Z,13.52
2023-05-09T05:13:10.985Z,13.52
2023-05-09T05:14:11.032Z,13.52
2023-05-09T05:15:10.980Z,13.53
2023-05-09T05:16:12.057Z,13.54
2023-05-09T05:17:11.021Z,13.55
2023-05-09T05:18:11.091Z,13.56
2023-05-09T05:19:10.889Z,13.57
2023-05-09T05:20:10.951Z,13.58
2023-05-09T05:21:10.936Z,13.59
2023-05-09T05:22:11.841Z,13.60
2023-05-09T05:23:10.862Z,13.61
2023-05-09T05:24:10.908Z,13.62
2023-05-09T05:25:10.869Z,13.63
2023-05-09T05:26:10.854Z,13.63
2023-05-09T05:27:11.751Z,13.65
2023-05-09T05:28:10.761Z,13.66
2023-05-09T05:29:10.806Z,13.67
2023-05-09T05:30:10.797Z,13.68
2023-05-09T05:31:10.892Z,13.70
2023-05-09T05:32:11.675Z,13.72
2023-05-09T05:33:10.800Z,13.73
2023-05-09T05:34:10.728Z,13.75
2023-05-09T05:35:10.726Z,13.76
2023-05-09T05:36:10.690Z,13.78
2023-05-09T05:37:11.591Z,13.79
2023-05-09T05:38:10.661Z,13.81
2023-05-09T05:39:10.607Z,13.83
2023-05-09T05:40:10.620Z,13.84
2023-05-09T05:41:10.655Z,13.86
2023-05-09T05:42:11.551Z,13.88
2023-05-09T05:43:10.595Z,13.90
2023-05-09T05:44:10.597Z,13.92
2023-05-09T05:45:10.580Z,13.93
2023-05-09T05:46:10.572Z,13.95
2023-05-09T05:47:11.450Z,13.97
2023-05-09T05:48:22.481Z,13.99
2023-05-09T05:49:10.499Z,14.00
2023-05-09T05:50:10.501Z,14.02
2023-05-09T05:51:10.483Z,14.03
2023-05-09T05:52:11.406Z,14.04
2023-05-09T05:53:10.473Z,14.05
2023-05-09T05:54:11.402Z,14.06
2023-05-09T05:55:10.520Z,14.07
2023-05-09T05:56:10.402Z,14.08
2023-05-09T05:57:11.405Z,14.09
2023-05-09T05:58:10.512Z,14.10
2023-05-09T05:59:12.552Z,14.12
2023-05-09T06:00:10.345Z,14.13
2023-05-09T06:01:10.369Z,14.15
2023-05-09T06:02:10.441Z,14.17
2023-05-09T06:03:11.330Z,14.20
2023-05-09T06:04:10.371Z,14.22
2023-05-09T06:05:10.308Z,14.24
2023-05-09T06:06:10.321Z,14.26
2023-05-09T06:07:10.263Z,14.28
2023-05-09T06:08:10.264Z,14.30
2023-05-09T06:09:11.202Z,14.32
2023-05-09T06:10:10.278Z,14.34
2023-05-09T06:11:10.227Z,14.36
2023-05-09T06:12:10.235Z,14.38
2023-05-09T06:13:10.281Z,14.40
2023-05-09T06:14:10.266Z,14.42
2023-05-09T06:15:11.130Z,14.44
2023-05-09T06:17:10.197Z,14.48
2023-05-09T06:18:10.142Z,14.50
2023-05-09T06:19:10.153Z,14.52
2023-05-09T06:20:10.147Z,14.55
2023-05-09T06:21:11.272Z,14.57
2023-05-09T06:22:10.354Z,14.59
2023-05-09T06:23:10.108Z,14.62
2023-05-09T06:24:16.593Z,14.64
2023-05-09T06:25:11.580Z,14.67
2023-05-09T06:26:10.063Z,14.70
2023-05-09T06:27:10.937Z,14.73
2023-05-09T06:28:10.031Z,14.76
2023-05-09T06:29:10.013Z,14.79
2023-05-09T06:31:10.110Z,14.85
2023-05-09T06:32:10.897Z,14.88
2023-05-09T06:33:09.962Z,14.91
2023-05-09T06:34:09.947Z,14.93
2023-05-09T06:35:09.932Z,14.96
2023-05-09T06:36:09.960Z,14.99
2023-05-09T06:37:10.841Z,15.03
2023-05-09T06:38:09.891Z,15.06
2023-05-09T06:39:09.881Z,15.10
2023-05-09T06:40:13.702Z,15.14
2023-05-09T06:41:09.853Z,15.19
2023-05-09T06:42:10.746Z,15.24
2023-05-09T06:43:09.847Z,15.29
2023-05-09T06:44:09.801Z,15.34
2023-05-09T06:45:09.954Z,15.39
2023-05-09T06:46:09.860Z,15.43
2023-05-09T06:47:09.751Z,15.48
2023-05-09T06:48:11.679Z,15.53
2023-05-09T06:49:09.739Z,15.58
2023-05-09T06:50:09.783Z,15.63
2023-05-09T06:51:09.725Z,15.68
2023-05-09T06:52:09.714Z,15.73
2023-05-09T06:53:09.737Z,15.78
2023-05-09T06:54:10.642Z,15.83
2023-05-09T06:55:09.685Z,15.88
2023-05-09T06:56:09.647Z,15.93
2023-05-09T06:57:09.635Z,15.98
2023-05-09T06:58:09.665Z,16.03
2023-05-09T06:59:10.539Z,16.08
2023-05-09T07:00:09.625Z,16.13
2023-05-09T07:01:09.695Z,16.17
2023-05-09T07:02:09.632Z,16.22
2023-05-09T07:03:09.614Z,16.27
2023-05-09T07:04:10.494Z,16.33
2023-05-09T07:05:09.599Z,16.38
2023-05-09T07:06:09.591Z,16.43
2023-05-09T07:07:09.541Z,16.49
2023-05-09T07:08:09.487Z,16.55
2023-05-09T07:09:09.508Z,16.60
2023-05-09T07:10:12.381Z,16.66
2023-05-09T07:11:09.534Z,16.71
2023-05-09T07:12:09.489Z,16.76
2023-05-09T07:13:09.519Z,16.81
2023-05-09T07:14:09.438Z,16.86
2023-05-09T07:15:10.365Z,16.91
2023-05-09T07:16:09.517Z,16.96
2023-05-09T07:17:21.798Z,17.01
2023-05-09T07:18:10.934Z,17.07
2023-05-09T07:19:10.337Z,17.12
2023-05-09T07:20:09.380Z,17.17
2023-05-09T07:21:10.279Z,17.22
2023-05-09T07:22:09.345Z,17.28
2023-05-09T07:23:09.312Z,17.33
2023-05-09T07:24:09.306Z,17.38
2023-05-09T07:25:09.311Z,17.44
2023-05-09T07:26:10.220Z,17.49
2023-05-09T07:27:09.301Z,17.54
2023-05-09T07:28:09.231Z,17.60
2023-05-09T07:29:09.310Z,17.66
2023-05-09T07:30:09.262Z,17.71
2023-05-09T07:31:09.207Z,17.77
2023-05-09T07:32:10.119Z,17.82
2023-05-09T07:33:09.193Z,17.88
2023-05-09T07:34:09.149Z,17.93
2023-05-09T07:35:09.172Z,17.98
2023-05-09T07:36:09.140Z,18.04
2023-05-09T07:37:09.130Z,18.09
2023-05-09T07:38:10.071Z,18.15
2023-05-09T07:39:09.097Z,18.20
2023-05-09T07:40:09.107Z,18.25
2023-05-09T07:41:09.177Z,18.30
2023-05-09T07:42:09.076Z,18.36
2023-05-09T07:43:09.971Z,18.42
2023-05-09T07:44:09.104Z,18.48
2023-05-09T07:45:09.103Z,18.55
2023-05-09T07:46:09.027Z,18.61
2023-05-09T07:47:08.998Z,18.68
2023-05-09T07:48:09.020Z,18.74
2023-05-09T07:49:09.937Z,18.81
2023-05-09T07:50:09.011Z,18.88
2023-05-09T07:51:08.954Z,18.94
2023-05-09T07:52:08.961Z,19.01
2023-05-09T07:53:08.963Z,19.08
2023-05-09T07:54:08.898Z,19.14
2023-05-09T07:55:09.830Z,19.21
2023-05-09T07:56:08.909Z,19.27
2023-05-09T07:57:08.924Z,19.34
2023-05-09T07:58:08.918Z,19.40
2023-05-09T07:59:08.882Z,19.47
2023-05-09T08:00:08.921Z,19.53
2023-05-09T08:01:09.773Z,19.59
2023-05-09T08:02:08.808Z,19.65
2023-05-09T08:03:08.928Z,19.71
2023-05-09T08:04:08.888Z,19.77
2023-05-09T08:05:08.823Z,19.83
2023-05-09T08:06:09.700Z,19.90
2023-05-09T08:07:08.739Z,19.97
2023-05-09T08:08:08.760Z,20.04
2023-05-09T08:09:08.735Z,20.10
2023-05-09T08:10:08.767Z,20.16
2023-05-09T08:11:08.728Z,20.22
2023-05-09T08:12:09.613Z,20.28
2023-05-09T08:13:08.756Z,20.34
2023-05-09T08:14:08.670Z,20.40
2023-05-09T08:15:09.050Z,20.47
2023-05-09T08:16:08.743Z,20.53
2023-05-09T08:17:09.607Z,20.59
2023-05-09T08:18:08.642Z,20.65
2023-05-09T08:19:08.671Z,20.71
2023-05-09T08:20:08.620Z,20.77
2023-05-09T08:21:08.587Z,20.84
2023-05-09T08:22:09.515Z,20.91
2023-05-09T08:23:08.561Z,20.98
2023-05-09T08:24:08.546Z,21.05
2023-05-09T08:25:08.565Z,21.13
2023-05-09T08:26:08.506Z,21.21
2023-05-09T08:27:08.486Z,21.29
2023-05-09T08:28:09.473Z,21.38
2023-05-09T08:29:08.535Z,21.47
2023-05-09T08:30:08.484Z,21.57
2023-05-09T08:31:08.471Z,21.67
2023-05-09T08:32:08.497Z,21.77
2023-05-09T08:33:09.512Z,21.87
2023-05-09T08:34:08.455Z,21.96
2023-05-09T08:35:08.417Z,22.03
2023-05-09T08:36:08.415Z,22.10
2023-05-09T08:37:08.528Z,22.16
2023-05-09T08:38:09.286Z,22.22
2023-05-09T08:39:08.366Z,22.29
2023-05-09T08:40:08.344Z,22.35
2023-05-09T08:41:08.309Z,22.41
2023-05-09T08:42:08.359Z,22.47
2023-05-09T08:43:09.239Z,22.54
2023-05-09T08:44:08.312Z,22.61
2023-05-09T08:45:08.300Z,22.67
2023-05-09T08:46:08.282Z,22.74
2023-05-09T08:47:08.252Z,22.80
2023-05-09T08:48:08.240Z,22.86
2023-05-09T08:49:09.151Z,22.92
2023-05-09T08:50:08.227Z,22.97
2023-05-09T08:51:08.181Z,23.02
2023-05-09T08:52:08.189Z,23.07
2023-05-09T08:53:08.407Z,23.13
2023-05-09T08:54:09.087Z,23.18
2023-05-09T08:55:08.166Z,23.24
2023-05-09T08:56:08.138Z,23.28
2023-05-09T08:57:08.152Z,23.32
2023-05-09T08:58:08.156Z,23.36
2023-05-09T08:59:09.030Z,23.39
2023-05-09T09:00:08.113Z,23.43
2023-05-09T09:01:08.103Z,23.48
2023-05-09T09:02:08.100Z,23.53
2023-05-09T09:03:08.137Z,23.59
2023-05-09T09:04:08.959Z,23.65
2023-05-09T09:05:10.118Z,23.71
2023-05-09T09:06:09.485Z,23.77
2023-05-09T09:07:08.032Z,23.84
2023-05-09T09:08:08.002Z,23.91
2023-05-09T09:09:08.002Z,23.98
2023-05-09T09:10:08.878Z,24.05
2023-05-09T09:11:07.926Z,24.12
2023-05-09T09:12:07.965Z,24.19
2023-05-09T09:13:07.995Z,24.27
2023-05-09T09:14:07.901Z,24.34
2023-05-09T09:15:08.850Z,24.41
2023-05-09T09:16:07.916Z,24.49
2023-05-09T09:17:07.901Z,24.58
2023-05-09T09:18:08.020Z,24.67
2023-05-09T09:19:07.839Z,24.76
2023-05-09T09:20:07.818Z,24.85
2023-05-09T09:21:08.721Z,24.93
2023-05-09T09:22:07.830Z,25.00
2023-05-09T09:23:07.845Z,25.08
2023-05-09T09:24:07.778Z,25.14
2023-05-09T09:25:07.761Z,25.21
2023-05-09T09:26:07.757Z,25.27
2023-05-09T09:27:08.721Z,25.32
2023-05-09T09:28:07.773Z,25.38
2023-05-09T09:29:07.699Z,25.46
2023-05-09T09:30:07.687Z,25.53
2023-05-09T09:31:07.704Z,25.62
2023-05-09T09:32:08.678Z,25.70
2023-05-09T09:33:07.781Z,25.77
2023-05-09T09:34:07.641Z,25.85
2023-05-09T09:35:07.653Z,25.92
2023-05-09T09:36:07.634Z,26.00
2023-05-09T09:37:08.539Z,26.07
2023-05-09T09:38:07.627Z,26.15
2023-05-09T09:39:07.634Z,26.23
2023-05-09T09:40:07.584Z,26.31
2023-05-09T09:41:07.565Z,26.39
2023-05-09T09:42:07.562Z,26.46
2023-05-09T09:43:08.469Z,26.53
2023-05-09T09:44:07.534Z,26.60
2023-05-09T09:45:07.523Z,26.67
2023-05-09T09:46:07.610Z,26.75
2023-05-09T09:47:07.481Z,26.85
2023-05-09T09:48:08.487Z,26.95
2023-05-09T09:49:07.462Z,27.06
2023-05-09T09:50:07.456Z,27.17
2023-05-09T09:51:07.465Z,27.27
2023-05-09T09:52:07.438Z,27.37
2023-05-09T09:53:07.458Z,27.46
2023-05-09T09:54:08.315Z,27.55
2023-05-09T09:55:07.385Z,27.63
2023-05-09T09:56:07.371Z,27.70
2023-05-09T09:57:07.391Z,27.79
2023-05-09T09:58:07.377Z,27.87
2023-05-09T09:59:07.364Z,27.96
2023-05-09T10:00:08.299Z,28.04
2023-05-09T10:01:07.358Z,28.12
2023-05-09T10:02:08.373Z,28.21
2023-05-09T10:03:07.418Z,28.31
2023-05-09T10:04:07.357Z,28.41
2023-05-09T10:05:07.375Z,28.51
2023-05-09T10:06:08.211Z,28.62
2023-05-09T10:07:07.306Z,28.75
2023-05-09T10:08:07.287Z,28.88
2023-05-09T10:09:07.291Z,29.02
2023-05-09T10:10:07.221Z,29.16
2023-05-09T10:11:08.169Z,29.30
2023-05-09T10:12:07.193Z,29.43
2023-05-09T10:13:07.226Z,29.55
2023-05-09T10:14:07.196Z,29.68
2023-05-09T10:15:07.192Z,29.80
2023-05-09T10:16:07.237Z,29.92
2023-05-09T10:17:08.184Z,30.03
2023-05-09T10:18:07.314Z,30.13
2023-05-09T10:19:07.160Z,30.23
2023-05-09T10:20:07.087Z,30.33
2023-05-09T10:21:07.054Z,30.44
2023-05-09T10:22:08.950Z,30.56
2023-05-09T10:23:07.059Z,30.67
2023-05-09T10:24:07.040Z,30.79
2023-05-09T10:25:07.063Z,30.89
2023-05-09T10:26:07.013Z,30.98
2023-05-09T10:27:06.985Z,31.07
2023-05-09T10:28:07.943Z,31.19
2023-05-09T10:29:06.964Z,31.34
2023-05-09T10:30:06.929Z,31.53
2023-05-09T10:31:08.766Z,31.75
2023-05-09T10:32:06.976Z,32.01
2023-05-09T10:33:06.997Z,32.34
2023-05-09T10:34:07.893Z,32.74
2023-05-09T10:35:06.938Z,33.22
2023-05-09T10:36:06.860Z,33.77
2023-05-09T10:37:06.873Z,34.42
2023-05-09T10:38:07.113Z,35.18
2023-05-09T10:39:07.761Z,36.16
2023-05-09T10:40:06.850Z,37.56
2023-05-09T10:41:06.808Z,39.40
2023-05-09T10:42:06.834Z,41.51
2023-05-09T10:43:06.805Z,43.69
2023-05-09T10:44:06.781Z,45.82
2023-05-09T10:45:07.752Z,47.80
2023-05-09T10:46:06.801Z,49.59
2023-05-09T10:47:06.938Z,51.20
2023-05-09T10:48:06.855Z,52.65
2023-05-09T10:49:06.732Z,53.98
2023-05-09T10:50:07.690Z,55.19
2023-05-09T10:51:06.689Z,56.31
2023-05-09T10:52:06.724Z,57.32
2023-05-09T10:53:06.719Z,58.22
2023-05-09T10:54:06.683Z,59.02
2023-05-09T10:55:06.672Z,59.76
2023-05-09T10:56:07.590Z,60.43
2023-05-09T10:57:06.653Z,61.09
2023-05-09T10:58:06.662Z,61.72
2023-05-09T10:59:06.698Z,62.33
2023-05-09T11:00:06.732Z,62.89
2023-05-09T11:01:07.760Z,63.41
2023-05-09T11:02:06.725Z,63.88
2023-05-09T11:03:06.727Z,64.32
2023-05-09T11:04:06.725Z,64.71
2023-05-09T11:05:06.576Z,65.05
2023-05-09T11:06:06.622Z,65.34
2023-05-09T11:07:07.454Z,65.61
2023-05-09T11:08:06.531Z,65.87
2023-05-09T11:09:06.516Z,66.13
2023-05-09T11:10:06.533Z,66.41
2023-05-09T11:11:06.473Z,66.74
2023-05-09T11:12:06.517Z,67.10
2023-05-09T11:13:07.447Z,67.48
2023-05-09T11:14:06.464Z,67.90
2023-05-09T11:15:06.600Z,68.32
2023-05-09T11:16:06.493Z,68.72
2023-05-09T11:17:06.517Z,69.07
2023-05-09T11:18:06.473Z,69.38
2023-05-09T11:19:07.331Z,69.64
2023-05-09T11:20:06.509Z,69.91
2023-05-09T11:21:06.406Z,70.19
2023-05-09T11:22:06.411Z,70.45
2023-05-09T11:23:06.360Z,70.69
2023-05-09T11:24:07.331Z,70.93
2023-05-09T11:25:06.364Z,71.18
2023-05-09T11:26:06.374Z,71.48
2023-05-09T11:27:06.353Z,71.81
2023-05-09T11:28:06.314Z,72.14
2023-05-09T11:29:07.252Z,72.42
2023-05-09T11:30:06.327Z,72.62
2023-05-09T11:31:06.287Z,72.77
2023-05-09T11:32:06.386Z,72.91
2023-05-09T11:33:06.324Z,73.03
2023-05-09T11:34:07.206Z,73.12
2023-05-09T11:35:06.304Z,73.17
2023-05-09T11:36:06.233Z,73.24
2023-05-09T11:37:06.257Z,73.32
2023-05-09T11:38:06.240Z,73.43
2023-05-09T11:39:06.493Z,73.54
2023-05-09T11:40:07.167Z,73.63
2023-05-09T11:41:06.248Z,73.70
2023-05-09T11:42:06.172Z,73.77
2023-05-09T11:43:06.198Z,73.82
2023-05-09T11:44:06.369Z,73.87
2023-05-09T11:45:06.204Z,73.92
2023-05-09T11:46:07.152Z,74.01
2023-05-09T11:47:06.185Z,74.11
2023-05-09T11:48:06.176Z,74.18
2023-05-09T11:49:06.154Z,74.21
2023-05-09T11:50:06.107Z,74.23
2023-05-09T11:51:07.065Z,74.24
2023-05-09T11:52:06.265Z,74.28
2023-05-09T11:53:06.130Z,74.33
2023-05-09T11:54:06.097Z,74.37
2023-05-09T11:55:06.113Z,74.40
2023-05-09T11:56:06.265Z,74.43
2023-05-09T11:57:07.002Z,74.46
2023-05-09T11:58:06.039Z,74.51
2023-05-09T11:59:06.108Z,74.57
2023-05-09T12:00:06.045Z,74.63
2023-05-09T12:01:06.085Z,74.70
2023-05-09T12:02:06.113Z,74.77
2023-05-09T12:03:07.018Z,74.83
2023-05-09T12:04:06.104Z,74.89
2023-05-09T12:05:05.994Z,74.95
2023-05-09T12:06:06.017Z,75.02
2023-05-09T12:07:06.947Z,75.08
2023-05-09T12:08:06.868Z,75.15
2023-05-09T12:09:06.020Z,75.20
2023-05-09T12:10:05.937Z,75.25
2023-05-09T12:11:05.923Z,75.30
2023-05-09T12:12:05.947Z,75.37
2023-05-09T12:13:06.905Z,75.49
2023-05-09T12:14:05.917Z,75.68
2023-05-09T12:15:05.922Z,75.90
2023-05-09T12:16:05.945Z,76.14
2023-05-09T12:17:05.886Z,76.36
2023-05-09T12:18:05.971Z,76.54
2023-05-09T12:19:06.829Z,76.66
2023-05-09T12:20:05.868Z,76.75
2023-05-09T12:21:05.944Z,76.80
2023-05-09T12:22:05.852Z,76.83
2023-05-09T12:23:05.832Z,76.80
2023-05-09T12:24:05.802Z,76.74
2023-05-09T12:25:06.812Z,76.63
2023-05-09T12:26:05.854Z,76.51
2023-05-09T12:27:05.817Z,76.39
2023-05-09T12:28:05.826Z,76.31
2023-05-09T12:29:05.895Z,76.26
2023-05-09T12:30:05.819Z,76.25
2023-05-09T12:31:06.729Z,76.28
2023-05-09T12:32:05.793Z,76.34
2023-05-09T12:33:05.801Z,76.40
2023-05-09T12:34:05.750Z,76.46
2023-05-09T12:35:05.840Z,76.51
2023-05-09T12:36:06.701Z,76.57
2023-05-09T12:37:05.735Z,76.62
2023-05-09T12:38:06.065Z,76.66
2023-05-09T12:39:05.734Z,76.65
2023-05-09T12:40:05.739Z,76.62
2023-05-09T12:41:05.747Z,76.63
2023-05-09T12:42:06.656Z,76.67
2023-05-09T12:43:05.751Z,76.72
2023-05-09T12:44:05.642Z,76.79
2023-05-09T12:45:05.696Z,76.90
2023-05-09T12:46:05.685Z,77.03
2023-05-09T12:47:06.728Z,77.14
2023-05-09T12:48:05.667Z,77.20
2023-05-09T12:49:05.758Z,77.19
2023-05-09T12:50:05.596Z,77.14
2023-05-09T12:51:05.619Z,77.07
2023-05-09T12:52:06.679Z,77.01
2023-05-09T12:53:06.572Z,76.95
2023-05-09T12:54:05.614Z,76.87
2023-05-09T12:55:05.563Z,76.78